Time;durP1;ratioP1;P1;durP2;ratioP2;P2;SDS_P1;SDS_P2;PMS_P1;PMS_P2;Temp;Humidity;BMP_temperature;BMP_pressure;BME280_temperature;BME280_humidity;BME280_pressure;Samples;Min_cycle;Max_cycle;Signal;HPM_P1;HPM_P2
2023/08/04 00:01:15;;;;;;;3.53;1.67;;;17.00;99.90;;;17.30;100.00;100386.59;5197991;28;20049;-49
2023/08/04 00:03:47;;;;;;;2.67;1.77;;;17.00;99.90;;;17.30;100.00;100381.31;5192481;28;20052;-49
2023/08/04 00:06:20;;;;;;;4.47;1.70;;;17.00;99.90;;;17.29;100.00;100385.72;5195712;28;20064;-49
2023/08/04 00:08:55;;;;;;;3.30;1.67;;;17.00;99.90;;;17.31;100.00;100383.06;5198119;28;20049;-49
2023/08/04 00:11:27;;;;;;;4.63;1.88;;;17.00;99.90;;;17.30;100.00;100390.09;5194120;28;20045;-49
2023/08/04 00:14:01;;;;;;;2.53;1.73;;;17.10;99.90;;;17.31;100.00;100377.81;5188134;28;20054;-49
2023/08/04 00:16:34;;;;;;;2.47;1.80;;;17.00;99.90;;;17.31;100.00;100383.94;5192468;28;20061;-49
2023/08/04 00:19:09;;;;;;;2.47;1.67;;;17.10;99.90;;;17.30;100.00;100384.84;5197309;28;20085;-49
2023/08/04 00:21:41;;;;;;;3.00;1.50;;;17.10;99.90;;;17.31;100.00;100383.94;5189973;28;20042;-49
2023/08/04 00:24:14;;;;;;;2.13;1.45;;;17.00;99.90;;;17.31;100.00;100388.34;5191743;28;20049;-49
2023/08/04 00:26:46;;;;;;;2.13;1.75;;;17.00;99.90;;;17.30;100.00;100389.22;5188674;28;20069;-48
2023/08/04 00:29:20;;;;;;;2.22;1.73;;;17.00;99.90;;;17.29;100.00;100391.00;5190040;28;20045;-50
2023/08/04 00:31:53;;;;;;;3.65;1.70;;;17.00;99.90;;;17.27;100.00;100395.34;5190334;28;20069;-48
2023/08/04 00:34:25;;;;;;;5.80;1.88;;;17.00;99.90;;;17.29;100.00;100400.66;5185301;28;20046;-49
2023/08/04 00:37:00;;;;;;;3.85;2.00;;;17.00;99.90;;;17.31;100.00;100404.16;5195025;28;20042;-49
2023/08/04 00:39:33;;;;;;;2.60;1.77;;;17.10;99.90;;;17.29;100.00;100409.41;5186423;28;20042;-48
2023/08/04 00:42:05;;;;;;;3.20;1.80;;;17.00;99.90;;;17.29;100.00;100411.19;5193103;28;20045;-49
2023/08/04 00:44:39;;;;;;;2.85;1.58;;;17.00;99.90;;;17.28;100.00;100414.69;5203746;28;20041;-49
2023/08/04 00:47:15;;;;;;;4.13;2.03;;;17.00;99.90;;;17.26;100.00;100411.16;5190934;28;20046;-49
2023/08/04 00:49:48;;;;;;;5.35;1.85;;;17.00;99.90;;;17.20;100.00;100419.94;5196475;28;20046;-49
2023/08/04 00:52:21;;;;;;;3.78;1.75;;;16.90;99.90;;;17.20;100.00;100417.28;5202279;28;20462;-50
2023/08/04 00:54:53;;;;;;;2.58;1.70;;;16.90;99.90;;;17.21;100.00;100413.78;5198425;28;20033;-51
2023/08/04 00:57:26;;;;;;;2.80;1.52;;;16.90;99.90;;;17.23;100.00;100416.44;5192510;28;20525;-50
2023/08/04 01:00:02;;;;;;;7.82;1.83;;;16.90;99.90;;;17.21;100.00;100415.53;5204036;28;20093;-50
2023/08/04 01:02:35;;;;;;;2.13;1.52;;;16.90;99.90;;;17.19;100.00;100412.91;5203701;28;20047;-49
2023/08/04 01:05:08;;;;;;;2.55;1.85;;;16.90;99.90;;;17.21;100.00;100420.81;5205493;28;20499;-50
2023/08/04 01:07:54;;;;;;;3.42;1.60;;;16.90;99.90;;;17.18;100.00;100423.44;5196097;28;20052;-50
2023/08/04 01:10:39;;;;;;;2.33;1.42;;;16.90;99.90;;;17.17;100.00;100421.69;5192852;28;20046;-50
2023/08/04 01:13:18;;;;;;;2.55;1.40;;;16.90;99.90;;;17.14;100.00;100422.53;5200711;28;20049;-49
2023/08/04 01:15:55;;;;;;;2.72;1.85;;;16.90;99.90;;;17.12;100.00;100434.84;5204031;28;20073;-51
2023/08/04 01:18:27;;;;;;;2.40;1.40;;;16.90;99.90;;;17.11;100.00;100432.22;5187528;28;20045;-50
2023/08/04 01:21:05;;;;;;;4.07;1.63;;;16.90;99.90;;;17.10;100.00;100431.34;5188854;28;20108;-49
2023/08/04 01:23:38;;;;;;;5.95;1.58;;;16.90;99.90;;;17.09;100.00;100433.09;5196335;28;20057;-49
2023/08/04 01:26:10;;;;;;;2.22;1.38;;;16.80;99.90;;;17.09;100.00;100438.34;5187743;28;20407;-51
2023/08/04 01:28:44;;;;;;;2.90;1.90;;;16.80;99.90;;;17.03;100.00;100435.72;5198433;28;20511;-50
2023/08/04 01:31:17;;;;;;;2.90;1.80;;;16.80;99.90;;;17.00;100.00;100437.44;5192521;28;20053;-52
2023/08/04 01:33:50;;;;;;;2.35;1.75;;;16.70;99.90;;;16.99;100.00;100433.94;5203542;28;20045;-50
2023/08/04 01:36:26;;;;;;;1.85;1.45;;;16.70;99.90;;;16.97;100.00;100433.06;5193344;28;20498;-50
2023/08/04 01:39:00;;;;;;;3.47;1.60;;;16.70;99.90;;;16.96;100.00;100439.19;5198127;28;20042;-49
2023/08/04 01:41:32;;;;;;;2.75;1.55;;;16.70;99.90;;;16.94;100.00;100430.41;5203220;28;20049;-48
2023/08/04 01:44:05;;;;;;;4.22;1.58;;;16.70;99.90;;;16.93;100.00;100439.16;5187911;28;20073;-50
2023/08/04 01:46:37;;;;;;;3.60;1.40;;;16.70;99.90;;;16.93;100.00;100444.44;5195799;28;20111;-50
2023/08/04 01:49:10;;;;;;;2.65;1.58;;;16.70;99.90;;;16.92;100.00;100442.69;5203037;28;20041;-50
2023/08/04 01:51:44;;;;;;;4.75;1.60;;;16.70;99.90;;;16.90;100.00;100444.44;5203387;28;20049;-49
2023/08/04 01:54:16;;;;;;;3.10;1.70;;;16.70;99.90;;;16.92;100.00;100450.59;5202424;28;20068;-51
2023/08/04 01:56:48;;;;;;;2.60;1.58;;;16.70;99.90;;;16.91;100.00;100448.84;5204348;28;20119;-50
2023/08/04 01:59:21;;;;;;;3.17;1.50;;;16.70;99.90;;;16.89;100.00;100442.69;5194507;28;20046;-51
2023/08/04 02:01:53;;;;;;;3.40;1.67;;;16.60;99.90;;;16.89;100.00;100447.97;5204572;28;20491;-50
2023/08/04 02:04:25;;;;;;;3.97;1.63;;;16.60;99.90;;;16.90;100.00;100447.06;5202950;28;20049;-51
2023/08/04 02:06:59;;;;;;;1.90;1.40;;;16.60;99.90;;;16.89;100.00;100447.97;5196964;28;20403;-50
2023/08/04 02:09:33;;;;;;;2.67;1.50;;;16.60;99.90;;;16.91;100.00;100448.84;5193852;28;20042;-51
2023/08/04 02:12:09;;;;;;;3.22;1.67;;;16.60;99.90;;;16.92;100.00;100453.22;5195371;28;20041;-52
2023/08/04 02:14:42;;;;;;;2.72;1.55;;;16.60;99.90;;;16.91;100.00;100453.22;5195826;28;20380;-49
2023/08/04 02:17:16;;;;;;;2.70;1.40;;;16.60;99.90;;;16.91;100.00;100448.84;5202896;28;20116;-53
2023/08/04 02:19:48;;;;;;;3.80;1.38;;;16.60;99.90;;;16.92;100.00;100458.47;5201615;28;20037;-50
2023/08/04 02:22:22;;;;;;;2.13;1.48;;;16.60;99.90;;;16.92;100.00;100463.75;5201646;28;20137;-50
2023/08/04 02:24:55;;;;;;;2.35;1.40;;;16.60;99.90;;;16.90;100.00;100464.63;5201874;28;20053;-50
2023/08/04 02:27:28;;;;;;;3.35;1.40;;;16.70;99.90;;;16.88;100.00;100461.97;5201280;28;20633;-50
2023/08/04 02:30:00;;;;;;;2.95;1.70;;;16.60;99.90;;;16.87;100.00;100459.34;5204079;28;20041;-52
2023/08/04 02:32:32;;;;;;;2.47;1.48;;;16.60;99.90;;;16.85;100.00;100456.69;5202732;28;20041;-50
2023/08/04 02:35:06;;;;;;;5.28;1.77;;;16.60;99.90;;;16.86;100.00;100468.97;5187561;28;20050;-50
2023/08/04 02:37:40;;;;;;;3.33;1.67;;;16.60;99.90;;;16.83;100.00;100458.47;5186102;28;20045;-53
2023/08/04 02:40:13;;;;;;;3.22;1.45;;;16.60;99.90;;;16.81;100.00;100460.19;5194421;28;20049;-51
2023/08/04 02:42:46;;;;;;;4.60;1.67;;;16.60;99.90;;;16.81;100.00;100470.72;5202597;28;20044;-51
2023/08/04 02:45:18;;;;;;;2.22;1.33;;;16.50;99.90;;;16.79;100.00;100464.56;5193500;28;20080;-52
2023/08/04 02:47:51;;;;;;;3.63;1.42;;;16.50;99.90;;;16.78;100.00;100470.72;5187715;28;20053;-50
2023/08/04 02:50:23;;;;;;;2.90;1.50;;;16.50;99.90;;;16.77;100.00;100468.97;5186552;28;20097;-49
2023/08/04 02:52:58;;;;;;;3.55;1.48;;;16.50;99.90;;;16.77;100.00;100474.22;5204015;28;20041;-51
2023/08/04 02:55:31;;;;;;;2.90;1.35;;;16.50;99.90;;;16.77;100.00;100471.59;5194410;28;20052;-50
2023/08/04 02:58:04;;;;;;;1.60;1.33;;;16.50;99.90;;;16.78;100.00;100482.13;5194023;28;20065;-50
2023/08/04 03:00:36;;;;;;;3.08;1.60;;;16.50;99.90;;;16.75;100.00;100478.56;5186040;28;20047;-52
2023/08/04 03:03:11;;;;;;;3.42;1.55;;;16.50;99.90;;;16.72;100.00;100481.22;5202429;28;20050;-52
2023/08/04 03:05:44;;;;;;;3.42;1.70;;;16.50;99.90;;;16.71;100.00;100484.72;5201842;28;20087;-50
2023/08/04 03:08:18;;;;;;;3.13;1.50;;;16.50;99.90;;;16.70;100.00;100477.69;5193571;28;20054;-51
2023/08/04 03:10:50;;;;;;;3.88;2.00;;;16.40;99.90;;;16.68;100.00;100482.91;5186464;28;20052;-50
2023/08/04 03:13:26;;;;;;;3.38;1.67;;;16.40;99.90;;;16.66;100.00;100486.41;5185912;28;20081;-50
2023/08/04 03:16:02;;;;;;;2.20;1.50;;;16.40;99.90;;;16.64;100.00;100482.91;5194124;28;20506;-52
2023/08/04 03:18:35;;;;;;;3.65;1.48;;;16.40;99.90;;;16.60;100.00;100492.50;5193854;28;20045;-51
2023/08/04 03:21:10;;;;;;;6.13;1.77;;;16.40;99.90;;;16.54;100.00;100488.09;5187059;28;20093;-53
2023/08/04 03:23:45;;;;;;;2.85;1.77;;;16.30;99.90;;;16.49;100.00;100500.34;5202106;28;20045;-50
2023/08/04 03:26:18;;;;;;;3.60;1.98;;;16.30;99.90;;;16.44;100.00;100501.22;5193713;28;20562;-51
2023/08/04 03:28:51;;;;;;;3.53;1.95;;;16.20;99.90;;;16.40;100.00;100500.28;5189211;28;20042;-50
2023/08/04 03:31:24;;;;;;;5.03;2.00;;;16.20;99.90;;;16.37;100.00;100500.28;5190818;28;20049;-49
2023/08/04 03:33:57;;;;;;;4.82;1.90;;;16.10;99.90;;;16.33;100.00;100495.84;5193734;28;20053;-51
2023/08/04 03:36:31;;;;;;;3.78;2.03;;;16.10;99.90;;;16.30;100.00;100503.75;5193437;28;20050;-51
2023/08/04 03:39:05;;;;;;;4.25;2.03;;;16.10;99.90;;;16.29;100.00;100513.34;5201915;28;20048;-51
2023/08/04 03:41:37;;;;;;;4.47;2.05;;;16.10;99.90;;;16.29;100.00;100512.47;5199025;28;20045;-51
2023/08/04 03:44:10;;;;;;;5.80;2.10;;;16.10;99.90;;;16.28;100.00;100508.09;5197101;28;20445;-50
2023/08/04 03:46:42;;;;;;;3.10;1.73;;;16.00;99.90;;;16.27;100.00;100511.59;5185496;28;20149;-51
2023/08/04 03:49:14;;;;;;;3.22;1.70;;;16.10;99.90;;;16.26;100.00;100517.72;5193907;28;20056;-51
2023/08/04 03:51:47;;;;;;;2.55;1.88;;;16.00;99.90;;;16.24;100.00;100520.34;5193667;28;20503;-49
2023/08/04 03:54:20;;;;;;;4.13;1.95;;;16.00;99.90;;;16.22;100.00;100524.72;5201895;28;20637;-51
2023/08/04 03:56:52;;;;;;;4.45;1.90;;;16.00;99.90;;;16.21;100.00;100524.69;5196811;28;20052;-49
2023/08/04 03:59:27;;;;;;;3.38;2.03;;;16.00;99.90;;;16.22;100.00;100523.81;5182134;28;20585;-51
2023/08/04 04:02:00;;;;;;;4.28;1.80;;;16.00;99.90;;;16.21;100.00;100525.59;5193310;28;20064;-51
2023/08/04 04:04:32;;;;;;;4.28;1.80;;;16.00;99.90;;;16.21;100.00;100529.97;5193189;28;20049;-52
2023/08/04 04:07:06;;;;;;;3.53;1.75;;;16.00;99.90;;;16.23;100.00;100525.59;5192952;28;20049;-51
2023/08/04 04:09:40;;;;;;;4.68;1.88;;;16.00;99.90;;;16.25;100.00;100537.03;5192741;28;20506;-52
2023/08/04 04:12:12;;;;;;;3.40;1.95;;;16.00;99.90;;;16.25;100.00;100535.25;5201725;28;20391;-52
2023/08/04 04:14:45;;;;;;;3.60;1.65;;;16.10;99.90;;;16.29;100.00;100541.41;5202641;28;20510;-51
2023/08/04 04:17:17;;;;;;;2.40;1.52;;;16.10;99.90;;;16.32;100.00;100543.22;5192779;28;20450;-51
2023/08/04 04:19:50;;;;;;;2.47;1.63;;;16.10;99.90;;;16.34;100.00;100542.34;5200847;28;20558;-50
2023/08/04 04:22:23;;;;;;;2.90;1.80;;;16.10;99.90;;;16.36;100.00;100551.09;5193201;28;20046;-51
2023/08/04 04:24:57;;;;;;;5.47;2.70;;;16.10;99.90;;;16.37;100.00;100547.63;5196535;28;20096;-50
2023/08/04 04:27:29;;;;;;;3.10;1.80;;;16.10;99.90;;;16.39;100.00;100547.63;5190143;28;20053;-50
2023/08/04 04:30:02;;;;;;;3.40;1.73;;;16.10;99.90;;;16.40;100.00;100547.63;5187077;28;20057;-51
2023/08/04 04:32:34;;;;;;;3.45;2.00;;;16.20;99.90;;;16.42;100.00;100555.53;5199402;28;20249;-51
2023/08/04 04:35:07;;;;;;;3.33;2.30;;;16.20;99.90;;;16.44;100.00;100552.06;5201389;28;20589;-51
2023/08/04 04:37:40;;;;;;;5.22;1.98;;;16.20;99.90;;;16.47;100.00;100554.69;5190026;28;20076;-51
2023/08/04 04:40:14;;;;;;;6.68;2.13;;;16.20;99.90;;;16.48;100.00;100545.06;5188904;28;20045;-52
2023/08/04 04:42:46;;;;;;;5.53;2.90;;;16.30;99.90;;;16.51;100.00;100553.00;5192072;28;20045;-52
2023/08/04 04:45:18;;;;;;;4.35;2.40;;;16.30;99.90;;;16.53;100.00;100553.88;5185342;28;20740;-51
2023/08/04 04:47:51;;;;;;;3.20;1.95;;;16.30;99.90;;;16.58;100.00;100552.16;5180502;28;20058;-49
2023/08/04 04:50:23;;;;;;;5.57;2.33;;;16.30;99.90;;;16.62;100.00;100553.03;5180622;28;20048;-52
2023/08/04 04:52:56;;;;;;;4.78;2.35;;;16.40;99.90;;;16.65;100.00;100553.94;5196233;28;20148;-51
2023/08/04 04:55:29;;;;;;;5.18;2.15;;;16.40;99.90;;;16.67;100.00;100556.59;5180404;28;20053;-51
2023/08/04 04:58:02;;;;;;;4.18;2.28;;;16.40;99.90;;;16.70;100.00;100562.81;5188523;28;20069;-51
2023/08/04 05:00:36;;;;;;;6.05;2.47;;;16.40;99.90;;;16.74;100.00;100568.94;5198474;28;20041;-51
2023/08/04 05:03:10;;;;;;;5.85;2.47;;;16.50;99.90;;;16.75;100.00;100570.69;5192741;28;20136;-51
2023/08/04 05:05:44;;;;;;;4.50;2.35;;;16.50;99.90;;;16.76;100.00;100569.84;5184188;28;20054;-51
2023/08/04 05:08:16;;;;;;;3.53;2.30;;;16.50;99.90;;;16.77;100.00;100574.25;5193521;28;20054;-51
2023/08/04 05:10:53;;;;;;;4.78;2.38;;;16.50;99.90;;;16.78;100.00;100579.50;5199939;28;20065;-51
2023/08/04 05:13:25;;;;;;;7.18;2.55;;;16.50;99.90;;;16.78;100.00;100583.91;5200521;28;20060;-51
2023/08/04 05:15:57;;;;;;;4.85;2.47;;;16.50;99.90;;;16.76;100.00;100578.63;5196250;28;20092;-51
2023/08/04 05:18:30;;;;;;;4.70;2.30;;;16.50;99.90;;;16.77;100.00;100579.50;5190864;28;20053;-50
2023/08/04 05:21:03;;;;;;;4.95;2.47;;;16.50;99.90;;;16.79;100.00;100573.38;5195575;28;20380;-49
2023/08/04 05:23:35;;;;;;;5.85;2.97;;;16.50;99.90;;;16.81;100.00;100576.00;5197996;28;20064;-51
2023/08/04 05:26:09;;;;;;;5.82;2.60;;;16.60;99.90;;;16.78;100.00;100582.13;5192415;28;20414;-52
2023/08/04 05:28:41;;;;;;;7.43;2.38;;;16.60;99.90;;;16.78;100.00;100583.91;5192630;28;20049;-49
2023/08/04 05:31:13;;;;;;;7.47;2.58;;;16.50;99.90;;;16.75;100.00;100575.97;5204069;28;20526;-51
2023/08/04 05:33:49;;;;;;;5.18;2.38;;;16.50;99.90;;;16.77;100.00;100579.50;5196205;28;20041;-52
2023/08/04 05:36:21;;;;;;;5.47;2.38;;;16.50;99.90;;;16.79;100.00;100588.28;5204753;28;20053;-49
2023/08/04 05:38:53;;;;;;;4.57;2.30;;;16.60;99.90;;;16.81;100.00;100589.16;5204264;28;20063;-50
2023/08/04 05:41:30;;;;;;;6.53;2.28;;;16.60;99.90;;;16.85;100.00;100585.69;5205478;28;20095;-52
2023/08/04 05:44:02;;;;;;;6.28;2.90;;;16.60;99.90;;;16.86;100.00;100586.56;5199126;28;20454;-51
2023/08/04 05:46:35;;;;;;;5.20;2.40;;;16.60;99.90;;;16.86;100.00;100584.81;5201071;28;20064;-52
2023/08/04 05:49:07;;;;;;;5.97;2.80;;;16.60;99.90;;;16.89;100.00;100583.94;5190250;28;20046;-51
2023/08/04 05:51:40;;;;;;;7.10;2.95;;;16.60;99.90;;;16.95;100.00;100594.50;5201529;28;20056;-51
2023/08/04 05:54:12;;;;;;;5.55;2.42;;;16.70;99.90;;;17.00;100.00;100598.94;5203580;28;20053;-51
2023/08/04 05:56:46;;;;;;;6.05;2.95;;;16.70;99.90;;;17.04;100.00;100599.84;5203805;28;20052;-53
2023/08/04 05:59:18;;;;;;;7.28;2.53;;;16.80;99.90;;;17.06;100.00;100604.22;5196527;28;20054;-52
2023/08/04 06:01:54;;;;;;;5.75;2.60;;;16.80;99.90;;;17.07;100.00;100606.00;5194900;28;20037;-51
2023/08/04 06:04:26;;;;;;;5.70;2.55;;;16.80;99.90;;;17.11;100.00;100611.28;5203538;28;20534;-51
2023/08/04 06:06:58;;;;;;;7.07;2.47;;;16.90;99.90;;;17.15;100.00;100610.41;5191105;28;20526;-51
2023/08/04 06:09:31;;;;;;;4.60;2.38;;;16.90;99.90;;;17.21;100.00;100613.94;5199861;28;20057;-51
2023/08/04 06:12:06;;;;;;;6.43;2.70;;;16.90;99.90;;;17.25;100.00;100613.09;5203446;28;20069;-52
2023/08/04 06:14:38;;;;;;;4.15;2.10;;;17.00;99.90;;;17.31;100.00;100620.16;5194095;28;20061;-50
2023/08/04 06:17:11;;;;;;;7.88;2.35;;;17.00;99.90;;;17.33;100.00;100623.69;5197206;28;20466;-52
2023/08/04 06:19:44;;;;;;;6.65;3.35;;;17.00;99.90;;;17.35;100.00;100622.84;5193160;28;20056;-53
2023/08/04 06:22:16;;;;;;;5.70;2.25;;;17.10;99.90;;;17.38;100.00;100624.59;5197648;28;20073;-49
2023/08/04 06:24:48;;;;;;;9.23;3.45;;;17.10;99.90;;;17.40;100.00;100625.47;5203879;28;20053;-49
2023/08/04 06:27:22;;;;;;;5.32;2.63;;;17.10;99.90;;;17.43;100.00;100627.25;5195234;28;20049;-51
2023/08/04 06:29:55;;;;;;;6.05;2.63;;;17.20;99.90;;;17.45;100.00;100629.00;5187326;28;20037;-49
2023/08/04 06:32:28;;;;;;;8.77;2.50;;;17.20;99.90;;;17.47;100.00;100631.63;5203296;28;20053;-51
2023/08/04 06:35:00;;;;;;;4.82;2.42;;;17.20;99.90;;;17.47;100.00;100640.41;5198991;28;20056;-51
2023/08/04 06:37:36;;;;;;;6.07;2.58;;;17.20;99.90;;;17.48;100.00;100639.56;5193131;28;20652;-52
2023/08/04 06:40:10;;;;;;;8.40;2.60;;;17.20;99.90;;;17.53;100.00;100642.22;5202847;28;20509;-51
2023/08/04 06:42:44;;;;;;;5.88;2.83;;;17.30;99.90;;;17.54;100.00;100650.16;5202580;28;20037;-50
2023/08/04 06:45:16;;;;;;;6.65;2.95;;;17.20;99.90;;;17.55;100.00;100648.38;5188443;28;20046;-51
2023/08/04 06:47:51;;;;;;;5.30;2.80;;;17.20;99.90;;;17.56;100.00;100648.38;5193267;28;20045;-49
2023/08/04 06:50:24;;;;;;;6.28;2.72;;;17.20;99.90;;;17.61;100.00;100657.19;5202912;28;20061;-49
2023/08/04 06:52:56;;;;;;;4.80;2.50;;;17.30;99.90;;;17.67;100.00;100655.44;5202880;28;20612;-50
2023/08/04 06:55:29;;;;;;;5.80;2.38;;;17.40;99.90;;;17.71;100.00;100657.22;5203048;28;20053;-51
2023/08/04 06:58:03;;;;;;;7.45;3.17;;;17.40;99.90;;;17.72;100.00;100659.00;5202888;28;20053;-50
2023/08/04 07:00:35;;;;;;;6.63;3.05;;;17.40;99.90;;;17.70;100.00;100658.97;5204165;28;20042;-51
2023/08/04 07:03:09;;;;;;;5.68;2.88;;;17.40;99.90;;;17.66;100.00;100665.09;5197533;28;20061;-51
2023/08/04 07:05:41;;;;;;;5.50;2.67;;;17.40;99.90;;;17.64;100.00;100665.09;5199429;28;20060;-51
2023/08/04 07:08:13;;;;;;;6.30;2.97;;;17.40;99.90;;;17.69;100.00;100669.53;5196533;28;20533;-51
2023/08/04 07:10:46;;;;;;;8.35;3.00;;;17.40;99.90;;;17.74;100.00;100679.25;5190241;28;20057;-52
2023/08/04 07:13:20;;;;;;;8.52;3.10;;;17.40;99.90;;;17.80;100.00;100673.09;5182452;28;20112;-49
2023/08/04 07:15:56;;;;;;;6.18;2.75;;;17.50;99.90;;;17.93;100.00;100679.28;5182027;28;20054;-51
2023/08/04 07:18:28;;;;;;;9.25;3.58;;;17.60;99.90;;;17.99;100.00;100680.19;5181902;28;20076;-49
2023/08/04 07:21:06;;;;;;;8.07;2.92;;;17.70;99.90;;;18.01;100.00;100680.22;5182072;28;20053;-49
2023/08/04 07:23:42;;;;;;;9.30;3.35;;;17.70;99.90;;;18.01;100.00;100682.84;5199331;28;20750;-51
2023/08/04 07:26:15;;;;;;;6.82;2.90;;;17.70;99.90;;;18.00;100.00;100695.16;5196554;28;20419;-50
2023/08/04 07:28:48;;;;;;;11.02;4.18;;;17.70;99.90;;;17.98;100.00;100688.09;5191839;28;20552;-50
2023/08/04 07:31:21;;;;;;;8.63;3.35;;;17.70;99.90;;;18.01;100.00;100688.13;5185251;28;20403;-47
2023/08/04 07:33:56;;;;;;;9.52;3.40;;;17.70;99.90;;;18.12;100.00;100695.16;5197345;28;20053;-47
2023/08/04 07:36:29;;;;;;;6.25;2.70;;;17.80;99.90;;;18.22;100.00;100697.84;5197022;28;20077;-47
2023/08/04 07:39:01;;;;;;;7.28;3.20;;;17.90;99.90;;;18.36;100.00;100701.38;5195957;28;20061;-47
2023/08/04 07:41:34;;;;;;;6.75;2.80;;;18.00;99.90;;;18.48;100.00;100701.38;5196160;28;20092;-47
2023/08/04 07:44:08;;;;;;;6.38;3.13;;;18.10;99.90;;;18.57;100.00;100701.38;5184663;28;20050;-50
2023/08/04 07:46:41;;;;;;;7.78;2.95;;;18.20;99.90;;;18.62;100.00;100699.63;5186931;28;20112;-50
2023/08/04 07:49:13;;;;;;;5.25;3.00;;;18.30;99.90;;;18.70;100.00;100703.19;5186798;28;20056;-49
2023/08/04 07:51:49;;;;;;;6.25;2.67;;;18.30;99.90;;;18.75;100.00;100699.69;5184787;28;20069;-47
2023/08/04 07:54:22;;;;;;;7.43;2.97;;;18.40;99.90;;;18.81;100.00;100694.41;5188801;28;20053;-47
2023/08/04 07:56:55;;;;;;;8.98;2.65;;;18.40;99.90;;;18.94;100.00;100696.16;5189762;28;20052;-50
2023/08/04 07:59:28;;;;;;;6.95;2.92;;;18.50;99.90;;;19.08;100.00;100693.47;5187835;28;20046;-50
2023/08/04 08:02:04;;;;;;;6.38;3.20;;;18.70;99.90;;;19.13;100.00;100697.00;5200418;28;20049;-49
2023/08/04 08:04:36;;;;;;;6.15;2.92;;;18.70;99.90;;;19.09;100.00;100701.41;5185125;28;20121;-50
2023/08/04 08:07:09;;;;;;;8.98;3.28;;;18.70;99.90;;;19.05;100.00;100699.66;5180477;28;20050;-48
2023/08/04 08:09:44;;;;;;;6.68;3.10;;;18.70;99.90;;;18.96;100.00;100700.53;5180934;28;20400;-51
2023/08/04 08:12:17;;;;;;;6.40;3.20;;;18.60;99.90;;;18.89;100.00;100703.19;5181035;28;20388;-50
2023/08/04 08:14:50;;;;;;;7.03;3.33;;;18.50;99.90;;;18.89;100.00;100703.19;5182724;28;20050;-51
2023/08/04 08:17:23;;;;;;;6.82;3.20;;;18.50;99.90;;;18.94;100.00;100712.88;5201390;28;20049;-49
2023/08/04 08:19:55;;;;;;;6.45;3.25;;;18.50;99.90;;;18.96;100.00;100707.56;5190582;28;20054;-50
2023/08/04 08:22:27;;;;;;;7.53;2.97;;;18.60;99.90;;;18.89;100.00;100714.63;5181283;28;20042;-49
2023/08/04 08:25:00;;;;;;;6.45;3.72;;;18.60;99.90;;;18.80;100.00;100714.66;5200927;28;20479;-49
2023/08/04 08:27:32;;;;;;;6.63;3.35;;;18.50;99.90;;;18.74;100.00;100716.41;5201654;28;20064;-50
2023/08/04 08:30:07;;;;;;;6.38;2.97;;;18.40;99.90;;;18.74;100.00;100717.28;5201299;28;20053;-50
2023/08/04 08:32:40;;;;;;;6.00;3.42;;;18.40;99.90;;;18.76;100.00;100719.91;5201120;28;20053;-50
2023/08/04 08:35:12;;;;;;;5.60;3.10;;;18.40;99.90;;;18.77;100.00;100729.59;5188119;28;20054;-51
2023/08/04 08:37:48;;;;;;;5.25;3.00;;;18.40;99.90;;;18.81;100.00;100726.09;5180703;28;20061;-51
2023/08/04 08:40:23;;;;;;;7.25;3.75;;;18.40;99.90;;;18.88;100.00;100739.28;5194518;28;20060;-49
2023/08/04 08:42:56;;;;;;;6.05;3.08;;;18.50;99.90;;;18.97;100.00;100731.38;5182598;28;20136;-50
2023/08/04 08:45:30;;;;;;;6.53;3.50;;;18.50;99.90;;;19.07;100.00;100729.59;5187535;28;20060;-50
2023/08/04 08:48:03;;;;;;;5.25;3.05;;;18.60;99.90;;;19.14;100.00;100730.47;5201224;28;20514;-51
2023/08/04 08:50:36;;;;;;;5.93;3.10;;;18.70;99.90;;;19.14;100.00;100726.06;5201265;28;20045;-51
2023/08/04 08:53:13;;;;;;;7.35;3.20;;;18.70;99.90;;;19.09;100.00;100733.09;5197093;28;20427;-50
2023/08/04 08:55:54;;;;;;;5.45;3.25;;;18.70;99.90;;;19.05;100.00;100743.69;5197793;28;20466;-50
2023/08/04 08:58:29;;;;;;;4.60;2.83;;;18.70;99.90;;;18.99;100.00;100741.94;5201151;28;20448;-49
2023/08/04 09:01:03;;;;;;;5.13;2.72;;;18.60;99.90;;;18.97;100.00;100746.31;5200974;28;20050;-50
2023/08/04 09:03:36;;;;;;;4.57;2.72;;;18.60;99.90;;;18.97;100.00;100754.25;5193272;28;20050;-51
2023/08/04 09:06:09;;;;;;;5.07;2.78;;;18.60;99.90;;;18.97;100.00;100741.03;5184636;28;20430;-50
2023/08/04 09:08:41;;;;;;;4.05;2.60;;;18.60;99.90;;;19.04;100.00;100744.56;5192616;28;20064;-50
2023/08/04 09:11:14;;;;;;;7.53;2.78;;;18.70;99.90;;;19.18;100.00;100743.69;5188742;28;20045;-51
2023/08/04 09:13:48;;;;;;;5.00;2.85;;;18.80;99.90;;;19.38;100.00;100745.41;5196758;28;20637;-51
2023/08/04 09:16:34;;;;;;;5.28;3.13;;;19.00;99.90;;;19.56;100.00;100750.66;5205482;28;20099;-50
2023/08/04 09:19:07;;;;;;;5.63;2.78;;;19.20;99.90;;;19.64;100.00;100746.25;5188450;28;20041;-51
2023/08/04 09:21:40;;;;;;;5.80;3.10;;;19.30;99.90;;;19.72;100.00;100751.53;5204921;28;20045;-51
2023/08/04 09:24:13;;;;;;;8.20;3.10;;;19.40;99.90;;;19.77;100.00;100761.19;5204618;28;20056;-51
2023/08/04 09:26:47;;;;;;;5.00;2.55;;;19.50;99.90;;;19.81;100.00;100754.13;5188032;28;20137;-51
2023/08/04 09:29:19;;;;;;;6.10;2.88;;;19.50;99.90;;;19.88;100.00;100757.63;5191175;28;20492;-49
2023/08/04 09:31:53;;;;;;;4.57;2.50;;;19.60;99.90;;;19.94;100.00;100757.59;5183981;28;20396;-50
2023/08/04 09:34:25;;;;;;;6.65;3.17;;;19.70;99.90;;;19.98;100.00;100762.00;5184036;28;20057;-50
2023/08/04 09:36:58;;;;;;;6.50;2.78;;;19.70;99.90;;;20.02;100.00;100761.13;5194249;28;20037;-51
2023/08/04 09:39:30;;;;;;;5.40;2.90;;;19.70;99.90;;;20.05;100.00;100766.38;5196331;28;20045;-51
2023/08/04 09:42:03;;;;;;;7.88;3.05;;;19.70;99.90;;;20.08;100.00;100758.41;5204430;28;20419;-53
2023/08/04 09:44:36;;;;;;;4.00;2.63;;;19.80;99.90;;;20.13;100.00;100759.28;5204297;28;20060;-51
2023/08/04 09:47:11;;;;;;;6.38;3.00;;;19.80;99.90;;;20.23;100.00;100765.41;5204042;28;20048;-50
2023/08/04 09:49:43;;;;;;;4.90;2.70;;;19.90;99.90;;;20.32;100.00;100760.94;5195865;28;20414;-51
2023/08/04 09:52:22;;;;;;;3.63;2.58;;;20.00;99.90;;;20.41;100.00;100765.31;5203966;28;20403;-49
2023/08/04 09:54:56;;;;;;;8.25;2.95;;;20.10;99.90;;;20.41;100.00;100764.41;5186235;28;20054;-50
2023/08/04 09:57:29;;;;;;;5.45;2.70;;;20.00;99.90;;;20.43;100.00;100774.13;5197855;28;20053;-52
2023/08/04 10:00:03;;;;;;;4.65;2.70;;;20.10;99.90;;;20.49;100.00;100773.25;5187413;28;20054;-53
2023/08/04 10:02:37;;;;;;;4.68;2.63;;;20.10;99.90;;;20.54;100.00;100776.75;5203804;28;20056;-52
2023/08/04 10:05:12;;;;;;;4.00;2.53;;;20.20;99.90;;;20.56;100.00;100785.56;5195632;28;20060;-51
2023/08/04 10:07:45;;;;;;;4.07;2.67;;;20.20;99.90;;;20.61;100.00;100786.41;5195663;28;20048;-50
2023/08/04 10:10:19;;;;;;;5.07;2.53;;;20.20;99.90;;;20.65;100.00;100784.59;5203586;28;20049;-51
2023/08/04 10:12:52;;;;;;;3.50;2.50;;;20.30;99.90;;;20.66;100.00;100776.63;5203689;28;20499;-50
2023/08/04 10:15:25;;;;;;;6.78;2.90;;;20.30;99.90;;;20.70;100.00;100782.81;5197647;28;20049;-52
2023/08/04 10:18:04;;;;;;;5.30;2.92;;;20.30;99.90;;;20.69;100.00;100779.28;5201260;28;20053;-50
2023/08/04 10:20:36;;;;;;;5.00;2.80;;;20.30;99.90;;;20.70;100.00;100778.38;5203542;28;20053;-51
2023/08/04 10:23:09;;;;;;;4.18;2.85;;;20.30;99.90;;;20.72;100.00;100787.19;5203447;28;20053;-50
2023/08/04 10:25:54;;;;;;;4.57;2.63;;;20.30;99.90;;;20.72;100.00;100787.19;5203456;28;20045;-52
2023/08/04 10:28:26;;;;;;;3.45;2.42;;;20.30;99.90;;;20.70;100.00;100785.47;5203499;28;20465;-50
2023/08/04 10:31:06;;;;;;;6.13;2.67;;;20.20;99.90;;;20.67;100.00;100794.31;5203197;28;20045;-52